createdAt,value
2019-05-15T00:00:48.196Z,8.72
2019-05-15T00:03:20.674Z,8.67
2019-05-15T00:05:51.515Z,8.70
2019-05-15T00:08:22.364Z,8.67
2019-05-15T00:10:53.059Z,8.69
2019-05-15T00:13:24.799Z,8.63
2019-05-15T00:15:55.479Z,8.71
2019-05-15T00:18:28.206Z,8.45
2019-05-15T00:20:59.537Z,8.46
2019-05-15T00:23:30.416Z,8.56
2019-05-15T00:26:01.080Z,8.58
2019-05-15T00:28:31.850Z,8.60
2019-05-15T00:31:02.546Z,8.69
2019-05-15T00:33:33.208Z,8.71
2019-05-15T00:36:03.908Z,8.63
2019-05-15T00:38:34.671Z,8.58
2019-05-15T00:41:05.307Z,8.56
2019-05-15T00:43:38.507Z,8.57
2019-05-15T00:46:09.644Z,8.16
2019-05-15T00:48:40.423Z,8.34
2019-05-15T00:51:11.358Z,8.43
2019-05-15T00:53:42.183Z,8.32
2019-05-15T00:56:13.056Z,8.05
2019-05-15T00:58:43.696Z,8.13
2019-05-15T01:01:14.391Z,8.03
2019-05-15T01:03:45.151Z,7.96
2019-05-15T01:06:15.920Z,7.89
2019-05-15T01:08:48.312Z,7.98
2019-05-15T01:11:19.322Z,8.01
2019-05-15T01:13:49.972Z,8.17
2019-05-15T01:16:20.938Z,8.15
2019-05-15T01:18:51.711Z,8.10
2019-05-15T01:21:22.620Z,8.05
2019-05-15T01:23:53.529Z,8.18
2019-05-15T01:26:24.430Z,8.26
2019-05-15T01:28:55.196Z,8.20
2019-05-15T01:31:28.375Z,8.21
2019-05-15T01:33:58.443Z,8.18
2019-05-15T01:36:29.307Z,8.18
2019-05-15T01:38:59.964Z,8.24
2019-05-15T01:41:30.668Z,8.21
2019-05-15T01:44:01.482Z,8.17
2019-05-15T01:46:32.172Z,8.10
2019-05-15T01:49:03.046Z,8.14
2019-05-15T01:51:33.812Z,8.13
2019-05-15T01:54:04.572Z,8.03
2019-05-15T01:56:35.310Z,8.02
2019-05-15T01:59:05.961Z,8.12
2019-05-15T02:01:39.136Z,8.18
2019-05-15T02:04:09.564Z,8.17
2019-05-15T02:06:40.497Z,8.13
2019-05-15T02:09:11.197Z,8.13
2019-05-15T02:11:41.963Z,8.02
2019-05-15T02:14:12.945Z,7.73
2019-05-15T02:16:43.620Z,7.77
2019-05-15T02:19:14.267Z,7.58
2019-05-15T02:21:44.899Z,7.60
2019-05-15T02:24:15.683Z,7.69
2019-05-15T02:26:48.182Z,7.79
2019-05-15T02:29:24.749Z,7.81
2019-05-15T02:31:51.190Z,7.83
2019-05-15T02:34:22.812Z,7.69
2019-05-15T02:36:53.552Z,7.63
2019-05-15T02:39:24.328Z,7.62
2019-05-15T02:41:55.022Z,7.49
2019-05-15T02:44:25.571Z,7.60
2019-05-15T02:46:58.795Z,7.63
2019-05-15T02:49:30.223Z,7.60
2019-05-15T02:52:01.223Z,7.62
2019-05-15T02:54:31.981Z,7.64
2019-05-15T02:57:02.791Z,7.63
2019-05-15T02:59:33.627Z,7.64
2019-05-15T03:02:04.496Z,7.57
2019-05-15T03:04:35.263Z,7.52
2019-05-15T03:07:09.423Z,7.53
2019-05-15T03:09:39.968Z,7.52
2019-05-15T03:12:11.159Z,7.43
2019-05-15T03:14:42.498Z,7.45
2019-05-15T03:17:13.332Z,7.37
2019-05-15T03:19:44.168Z,7.22
2019-05-15T03:22:15.233Z,7.34
2019-05-15T03:24:46.004Z,7.47
2019-05-15T03:27:19.518Z,7.48
2019-05-15T03:29:49.517Z,7.49
2019-05-15T03:32:33.563Z,7.49
2019-05-15T03:34:56.415Z,7.47
2019-05-15T03:37:25.260Z,7.40
2019-05-15T03:39:59.232Z,7.41
2019-05-15T03:42:29.405Z,7.31
2019-05-15T03:45:00.456Z,7.33
2019-05-15T03:47:31.317Z,7.35
2019-05-15T03:50:02.301Z,7.27
2019-05-15T03:52:32.988Z,7.14
2019-05-15T03:55:03.773Z,7.13
2019-05-15T03:57:34.560Z,7.14
2019-05-15T04:00:09.346Z,7.04
2019-05-15T04:02:39.376Z,7.17
2019-05-15T04:05:12.325Z,7.17
2019-05-15T04:07:43.132Z,7.17
2019-05-15T04:10:14.308Z,7.13
2019-05-15T04:12:45.047Z,7.13
2019-05-15T04:15:18.755Z,7.16
2019-05-15T04:17:49.329Z,7.26
2019-05-15T04:20:20.479Z,7.29
2019-05-15T04:22:50.955Z,7.41
2019-05-15T04:25:21.461Z,7.46
2019-05-15T04:27:52.328Z,7.54
2019-05-15T04:30:22.827Z,7.55
2019-05-15T04:32:53.300Z,7.25
2019-05-15T04:35:23.822Z,7.30
2019-05-15T04:37:54.306Z,7.39
2019-05-15T04:40:24.803Z,7.46
2019-05-15T04:42:55.301Z,7.57
2019-05-15T04:45:25.777Z,7.68
2019-05-15T04:47:58.766Z,7.65
2019-05-15T04:50:28.967Z,7.82
2019-05-15T04:52:59.705Z,7.80
2019-05-15T04:55:30.184Z,7.80
2019-05-15T04:58:00.871Z,7.70
2019-05-15T05:00:49.509Z,7.83
2019-05-15T05:03:20.540Z,7.87
2019-05-15T05:05:51.755Z,7.74
2019-05-15T05:08:23.243Z,7.85
2019-05-15T05:10:53.797Z,7.99
2019-05-15T05:13:24.274Z,8.00
2019-05-15T05:15:54.853Z,7.97
2019-05-15T05:18:25.320Z,8.24
2019-05-15T05:20:57.753Z,8.16
2019-05-15T05:23:28.436Z,8.09
2019-05-15T05:26:00.103Z,8.29
2019-05-15T05:28:30.632Z,8.33
2019-05-15T05:31:01.147Z,8.36
2019-05-15T05:33:31.646Z,8.27
2019-05-15T05:36:02.214Z,8.45
2019-05-15T05:38:32.811Z,8.60
2019-05-15T05:41:03.349Z,8.76
2019-05-15T05:43:34.151Z,8.54
2019-05-15T05:46:04.662Z,8.76
2019-05-15T05:48:35.244Z,8.93
2019-05-15T05:51:05.780Z,8.90
2019-05-15T05:53:38.388Z,8.93
2019-05-15T05:56:09.065Z,9.10
2019-05-15T05:58:39.716Z,9.27
2019-05-15T06:01:10.244Z,9.23
2019-05-15T06:03:40.747Z,9.44
2019-05-15T06:06:11.255Z,9.64
2019-05-15T06:08:41.807Z,9.49
2019-05-15T06:11:12.300Z,9.54
2019-05-15T06:13:42.811Z,9.70
2019-05-15T06:16:13.286Z,9.84
2019-05-15T06:18:43.884Z,9.95
2019-05-15T06:21:14.355Z,9.87
2019-05-15T06:23:46.857Z,9.98
2019-05-15T06:26:19.697Z,10.10
2019-05-15T06:28:49.513Z,10.09
2019-05-15T06:31:19.995Z,10.22
2019-05-15T06:33:50.476Z,10.42
2019-05-15T06:36:21.078Z,10.66
2019-05-15T06:38:51.559Z,10.50
2019-05-15T06:41:22.059Z,10.70
2019-05-15T06:43:52.588Z,10.71
2019-05-15T06:46:23.052Z,10.67
2019-05-15T06:48:54.656Z,10.63
2019-05-15T06:51:25.116Z,10.88
2019-05-15T06:53:55.626Z,10.86
2019-05-15T06:56:28.164Z,10.76
2019-05-15T06:58:58.356Z,10.95
2019-05-15T07:01:29.430Z,10.99
2019-05-15T07:04:00.201Z,11.14
2019-05-15T07:06:30.699Z,11.19
2019-05-15T07:09:01.189Z,11.50
2019-05-15T07:11:33.113Z,11.55
2019-05-15T07:14:03.580Z,11.67
2019-05-15T07:16:34.236Z,11.79
2019-05-15T07:19:04.704Z,11.95
2019-05-15T07:21:35.220Z,11.71
2019-05-15T07:24:05.692Z,11.69
2019-05-15T07:26:38.944Z,11.93
2019-05-15T07:29:08.393Z,11.92
2019-05-15T07:31:38.918Z,11.94
2019-05-15T07:34:09.415Z,12.04
2019-05-15T07:36:39.874Z,12.04
2019-05-15T07:39:10.406Z,12.32
2019-05-15T07:41:40.865Z,12.30
2019-05-15T07:44:11.384Z,12.44
2019-05-15T07:46:41.850Z,12.46
2019-05-15T07:49:12.357Z,12.59
2019-05-15T07:51:42.843Z,12.64
2019-05-15T07:54:13.324Z,12.77
2019-05-15T07:56:43.855Z,12.58
2019-05-15T07:59:14.314Z,12.70
2019-05-15T08:01:44.965Z,12.82
2019-05-15T08:04:26.225Z,12.78
2019-05-15T08:06:49.099Z,12.92
2019-05-15T08:09:19.752Z,12.92
2019-05-15T08:11:50.225Z,12.99
2019-05-15T08:14:20.720Z,12.98
2019-05-15T08:16:51.193Z,13.04
2019-05-15T08:19:21.706Z,12.63
2019-05-15T08:21:52.192Z,12.71
2019-05-15T08:24:22.752Z,12.74
2019-05-15T08:26:53.227Z,12.81
2019-05-15T08:29:23.716Z,12.79
2019-05-15T08:31:54.256Z,13.13
2019-05-15T08:34:24.764Z,13.18
2019-05-15T08:36:55.264Z,12.98
2019-05-15T08:39:28.340Z,12.69
2019-05-15T08:41:58.425Z,13.14
2019-05-15T08:44:29.527Z,13.17
2019-05-15T08:47:00.097Z,13.47
2019-05-15T08:49:31.051Z,13.60
2019-05-15T08:52:01.509Z,13.43
2019-05-15T08:54:32.117Z,13.82
2019-05-15T08:57:02.587Z,13.99
2019-05-15T08:59:33.081Z,14.20
2019-05-15T09:02:03.553Z,13.95
2019-05-15T09:04:35.158Z,13.91
2019-05-15T09:07:08.947Z,14.11
2019-05-15T09:09:38.435Z,14.05
2019-05-15T09:12:09.176Z,14.13
2019-05-15T09:14:39.636Z,14.17
2019-05-15T09:17:10.257Z,14.24
2019-05-15T09:19:40.847Z,14.39
2019-05-15T09:22:11.370Z,14.58
2019-05-15T09:24:41.912Z,14.66
2019-05-15T09:27:12.457Z,14.58
2019-05-15T09:29:44.039Z,14.01
2019-05-15T09:32:14.504Z,13.71
2019-05-15T09:34:53.915Z,13.95
2019-05-15T09:37:18.050Z,13.79
2019-05-15T09:39:49.092Z,13.88
2019-05-15T09:42:19.803Z,13.88
2019-05-15T09:44:50.245Z,13.94
2019-05-15T09:47:21.031Z,13.85
2019-05-15T09:49:51.496Z,14.06
2019-05-15T09:52:23.036Z,14.41
2019-05-15T09:54:54.122Z,14.27
2019-05-15T09:57:24.873Z,14.40
2019-05-15T09:59:58.548Z,14.33
2019-05-15T10:02:28.532Z,14.52
2019-05-15T10:05:06.692Z,14.60
2019-05-15T10:07:31.906Z,14.25
2019-05-15T10:10:02.678Z,14.56
2019-05-15T10:12:35.112Z,14.16
2019-05-15T10:15:11.434Z,14.34
2019-05-15T10:17:40.115Z,14.49
2019-05-15T10:20:11.176Z,14.69
2019-05-15T10:22:42.270Z,14.83
2019-05-15T10:25:13.165Z,14.60
2019-05-15T10:27:44.152Z,14.98
2019-05-15T10:30:15.175Z,15.06
2019-05-15T10:32:48.483Z,14.92
2019-05-15T10:35:25.647Z,15.05
2019-05-15T10:37:51.182Z,15.07
2019-05-15T10:40:22.213Z,15.18
2019-05-15T10:42:52.970Z,15.19
2019-05-15T10:45:24.152Z,15.56
2019-05-15T10:47:55.435Z,15.39
2019-05-15T10:50:28.446Z,15.18
2019-05-15T10:52:58.641Z,15.16
2019-05-15T10:55:29.589Z,15.41
2019-05-15T10:58:00.357Z,15.59
2019-05-15T11:00:32.165Z,15.85
2019-05-15T11:03:02.864Z,15.75
2019-05-15T11:05:44.450Z,15.63
2019-05-15T11:08:08.345Z,15.39
2019-05-15T11:10:41.916Z,15.91
2019-05-15T11:13:11.469Z,15.97
2019-05-15T11:15:42.732Z,16.22
2019-05-15T11:18:13.603Z,16.18
2019-05-15T11:20:44.643Z,16.08
2019-05-15T11:23:20.128Z,16.13
2019-05-15T11:25:50.831Z,16.27
2019-05-15T11:28:21.516Z,16.09
2019-05-15T11:30:53.298Z,15.87
2019-05-15T11:33:23.998Z,15.83
2019-05-15T11:36:04.164Z,16.37
2019-05-15T11:38:28.975Z,16.04
2019-05-15T11:40:59.780Z,15.97
2019-05-15T11:43:30.518Z,16.23
2019-05-15T11:46:02.234Z,16.41
2019-05-15T11:48:33.018Z,16.39
2019-05-15T11:51:03.913Z,16.27
2019-05-15T11:53:34.737Z,16.54
2019-05-15T11:56:05.586Z,16.50
2019-05-15T11:58:38.790Z,16.88
2019-05-15T12:01:09.038Z,16.95
2019-05-15T12:03:39.796Z,17.14
2019-05-15T12:06:18.473Z,16.95
2019-05-15T12:08:43.396Z,16.95
2019-05-15T12:11:28.685Z,17.08
2019-05-15T12:13:46.632Z,17.11
2019-05-15T12:16:17.429Z,17.02
2019-05-15T12:18:48.410Z,17.10
2019-05-15T12:21:20.072Z,16.91
2019-05-15T12:23:51.862Z,17.27
2019-05-15T12:26:22.483Z,17.04
2019-05-15T12:28:53.241Z,16.60
2019-05-15T12:33:58.498Z,16.67
2019-05-15T12:36:47.322Z,16.89
2019-05-15T12:39:09.481Z,16.87
2019-05-15T12:39:25.962Z,16.90
2019-05-15T13:01:54.603Z,18.06
2019-05-15T13:04:25.565Z,17.62
2019-05-15T13:07:12.209Z,17.48
2019-05-15T13:09:28.845Z,17.50
2019-05-15T13:11:59.457Z,17.61
2019-05-15T13:14:30.114Z,17.18
2019-05-15T13:17:00.951Z,17.12
2019-05-15T13:19:31.717Z,17.17
2019-05-15T13:22:02.418Z,17.47
2019-05-15T13:24:33.167Z,17.48
2019-05-15T13:27:04.053Z,17.54
2019-05-15T13:29:34.968Z,17.36
2019-05-15T13:32:07.914Z,17.67
2019-05-15T13:34:38.879Z,17.83
2019-05-15T13:37:09.889Z,17.92
2019-05-15T13:39:40.632Z,17.91
2019-05-15T13:42:11.597Z,17.72
2019-05-15T13:44:42.303Z,17.98
2019-05-15T13:47:13.229Z,17.58
2019-05-15T13:49:43.840Z,17.25
2019-05-15T13:52:14.700Z,18.19
2019-05-15T13:54:45.542Z,17.89
2019-05-15T13:57:18.036Z,17.36
2019-05-15T13:59:49.945Z,17.82
2019-05-15T14:02:20.737Z,18.85
2019-05-15T14:04:52.465Z,18.94
2019-05-15T14:07:23.248Z,19.05
2019-05-15T14:09:54.108Z,19.08
2019-05-15T14:12:25.016Z,19.62
2019-05-15T14:14:58.046Z,19.79
2019-05-15T14:17:28.454Z,19.52
2019-05-15T14:20:00.888Z,20.46
2019-05-15T14:22:32.876Z,20.80
2019-05-15T14:25:03.775Z,20.05
2019-05-15T14:27:34.850Z,20.31
2019-05-15T14:30:06.056Z,19.69
2019-05-15T14:32:53.370Z,19.58
2019-05-15T14:35:11.396Z,20.19
2019-05-15T14:37:41.972Z,19.89
2019-05-15T14:40:12.945Z,20.27
2019-05-15T14:42:43.936Z,19.74
2019-05-15T14:45:14.867Z,20.15
2019-05-15T14:47:45.572Z,19.76
2019-05-15T14:50:16.133Z,20.24
2019-05-15T14:52:48.008Z,20.22
2019-05-15T14:55:18.682Z,19.91
2019-05-15T14:57:49.257Z,20.21
2019-05-15T15:00:20.778Z,20.22
2019-05-15T15:02:51.244Z,20.52
2019-05-15T15:05:23.118Z,19.95
2019-05-15T15:07:54.289Z,19.49
2019-05-15T15:10:24.808Z,19.86
2019-05-15T15:12:55.321Z,20.26
2019-05-15T15:15:25.792Z,20.33
2019-05-15T15:17:58.365Z,21.00
2019-05-15T15:20:28.697Z,20.70
2019-05-15T15:22:59.539Z,20.37
2019-05-15T15:25:30.032Z,20.97
2019-05-15T15:28:00.515Z,20.71
2019-05-15T15:30:32.035Z,21.06
2019-05-15T15:33:03.782Z,21.00
2019-05-15T15:35:34.282Z,21.74
2019-05-15T15:38:04.865Z,22.09
2019-05-15T15:40:38.576Z,21.68
2019-05-15T15:43:09.629Z,19.64
2019-05-15T15:45:40.974Z,20.05
2019-05-15T15:48:11.849Z,20.90
2019-05-15T15:50:42.710Z,19.98
2019-05-15T15:53:24.517Z,20.05
2019-05-15T15:55:56.886Z,20.17
2019-05-15T15:58:29.029Z,19.62
2019-05-15T16:01:00.818Z,19.01
2019-05-15T16:03:31.682Z,19.56
2019-05-15T16:06:02.614Z,19.53
2019-05-15T16:08:33.553Z,19.25
2019-05-15T16:11:04.703Z,19.37
2019-05-15T16:13:35.565Z,19.99
2019-05-15T16:16:08.586Z,20.19
2019-05-15T16:18:39.086Z,19.42
2019-05-15T16:21:09.986Z,19.76
2019-05-15T16:23:41.127Z,19.77
2019-05-15T16:26:12.055Z,19.39
2019-05-15T16:28:42.698Z,18.53
2019-05-15T16:31:13.303Z,18.85
2019-05-15T16:33:44.061Z,18.72
2019-05-15T16:36:14.765Z,18.85
2019-05-15T16:38:48.044Z,18.76
2019-05-15T16:41:18.587Z,18.57
2019-05-15T16:43:49.159Z,18.43
2019-05-15T16:46:20.118Z,18.21
2019-05-15T16:48:51.139Z,18.36
2019-05-15T16:51:23.185Z,18.27
2019-05-15T16:53:53.829Z,18.65
2019-05-15T16:56:24.635Z,18.19
2019-05-15T16:58:55.347Z,18.63
2019-05-15T17:01:28.817Z,18.38
2019-05-15T17:03:58.613Z,18.07
2019-05-15T17:06:29.542Z,17.82
2019-05-15T17:09:00.389Z,17.81
2019-05-15T17:11:32.654Z,17.91
2019-05-15T17:14:03.625Z,17.61
2019-05-15T17:16:34.573Z,17.68
2019-05-15T17:19:05.334Z,17.38
2019-05-15T17:21:36.171Z,17.40
2019-05-15T17:24:08.882Z,17.38
2019-05-15T17:26:39.714Z,17.35
2019-05-15T17:29:10.654Z,17.27
2019-05-15T17:31:41.578Z,17.50
2019-05-15T17:34:12.462Z,17.75
2019-05-15T17:36:43.374Z,17.56
2019-05-15T17:39:15.136Z,17.85
2019-05-15T17:41:48.185Z,17.37
2019-05-15T17:44:18.613Z,17.16
2019-05-15T17:46:49.347Z,16.71
2019-05-15T17:49:20.448Z,16.41
2019-05-15T17:51:52.173Z,16.56
2019-05-15T17:54:22.840Z,16.58
2019-05-15T17:56:53.786Z,16.62
2019-05-15T17:59:24.784Z,16.51
2019-05-15T18:01:55.650Z,16.20
2019-05-15T18:04:58.723Z,16.36
2019-05-15T18:07:29.968Z,16.50
2019-05-15T18:10:00.806Z,16.61
2019-05-15T18:12:31.702Z,16.30
2019-05-15T18:15:02.682Z,15.99
2019-05-15T18:17:34.206Z,15.83
2019-05-15T18:20:05.071Z,16.02
2019-05-15T18:22:37.923Z,15.98
2019-05-15T18:25:09.239Z,15.96
2019-05-15T18:27:40.297Z,16.13
2019-05-15T18:30:11.275Z,15.66
2019-05-15T18:32:42.164Z,15.38
2019-05-15T18:35:13.432Z,15.51
2019-05-15T18:37:44.525Z,15.65
2019-05-15T18:40:15.196Z,15.32
2019-05-15T18:42:45.720Z,15.21
2019-05-15T18:45:18.389Z,15.46
2019-05-15T18:47:48.919Z,15.45
2019-05-15T18:50:19.923Z,15.47
2019-05-15T18:52:50.722Z,15.10
2019-05-15T18:55:21.622Z,15.37
2019-05-15T18:57:52.289Z,14.96
2019-05-15T19:00:23.386Z,15.10
2019-05-15T19:02:54.303Z,14.85
2019-05-15T19:05:25.321Z,14.83
2019-05-15T19:07:58.020Z,14.69
2019-05-15T19:10:29.089Z,14.75
2019-05-15T19:13:00.004Z,14.88
2019-05-15T19:15:31.060Z,14.68
2019-05-15T19:26:18.342Z,14.53
2019-05-15T19:28:49.316Z,14.42
2019-05-15T19:31:26.570Z,14.31
2019-05-15T19:33:52.749Z,14.35
2019-05-15T19:36:23.398Z,14.23
2019-05-15T19:38:54.385Z,14.14
2019-05-15T19:41:25.275Z,14.09
2019-05-15T19:43:58.001Z,14.04
2019-05-15T19:46:28.597Z,13.88
2019-05-15T19:48:59.325Z,13.80
2019-05-15T19:51:30.291Z,13.77
2019-05-15T19:54:01.173Z,13.88
2019-05-15T19:56:32.051Z,13.97
2019-05-15T19:59:02.956Z,13.55
2019-05-15T20:01:33.679Z,13.80
2019-05-15T20:04:04.690Z,13.97
2019-05-15T20:06:35.789Z,13.91
2019-05-15T20:09:07.840Z,13.86
2019-05-15T20:11:38.893Z,13.81
2019-05-15T20:14:09.807Z,13.76
2019-05-15T20:16:40.570Z,13.68
2019-05-15T20:19:11.322Z,13.55
2019-05-15T20:21:42.479Z,13.40
2019-05-15T20:24:13.459Z,13.26
2019-05-15T20:26:44.228Z,13.10
2019-05-15T20:29:14.962Z,12.81
2019-05-15T20:31:48.308Z,12.55
2019-05-15T20:34:18.364Z,12.47
2019-05-15T20:36:49.137Z,12.39
2019-05-15T20:39:19.936Z,12.39
2019-05-15T20:41:50.607Z,12.42
2019-05-15T20:44:21.523Z,12.56
2019-05-15T20:46:52.432Z,12.65
2019-05-15T20:49:23.076Z,12.61
2019-05-15T20:51:53.828Z,12.45
2019-05-15T20:54:24.748Z,12.35
2019-05-15T20:56:58.372Z,12.29
2019-05-15T20:59:28.956Z,12.29
2019-05-15T21:01:59.783Z,12.40
2019-05-15T21:04:31.381Z,12.29
2019-05-15T21:07:03.233Z,12.43
2019-05-15T21:09:33.960Z,12.39
2019-05-15T21:12:04.729Z,12.22
2019-05-15T21:14:39.803Z,11.97
2019-05-15T21:17:08.303Z,11.76
2019-05-15T21:19:39.162Z,11.67
2019-05-15T21:22:11.009Z,11.68
2019-05-15T21:24:41.856Z,11.53
2019-05-15T21:27:12.694Z,11.37
2019-05-15T21:29:43.456Z,11.32
2019-05-15T21:32:14.246Z,11.38
2019-05-15T21:34:45.626Z,11.29
2019-05-15T21:37:18.597Z,11.20
2019-05-15T21:39:49.163Z,11.23
2019-05-15T21:42:19.931Z,11.12
2019-05-15T21:44:50.582Z,11.08
2019-05-15T21:47:21.510Z,11.04
2019-05-15T21:49:52.157Z,10.99
2019-05-15T21:52:22.824Z,10.93
2019-05-15T21:54:53.528Z,10.85
2019-05-15T21:57:33.130Z,10.92
2019-05-15T21:59:57.801Z,10.64
2019-05-15T22:02:29.730Z,10.70
2019-05-15T22:05:01.069Z,10.70
2019-05-15T22:07:32.096Z,10.64
2019-05-15T22:10:02.890Z,10.69
2019-05-15T22:12:34.820Z,10.70
2019-05-15T22:15:05.836Z,10.70
2019-05-15T22:17:38.954Z,10.70
2019-05-15T22:20:10.264Z,10.52
2019-05-15T22:22:41.173Z,10.37
2019-05-15T22:25:12.447Z,10.40
2019-05-15T22:27:43.244Z,10.34
2019-05-15T22:30:14.970Z,10.49
2019-05-15T22:32:46.097Z,10.43
2019-05-15T22:35:18.859Z,10.37
2019-05-15T22:37:50.052Z,10.36
2019-05-15T22:40:22.548Z,10.26
2019-05-15T22:42:53.300Z,10.23
2019-05-15T22:45:24.417Z,10.20
2019-05-15T22:47:55.190Z,10.19
2019-05-15T22:50:27.873Z,10.20
2019-05-15T22:52:59.025Z,10.18
2019-05-15T22:55:29.876Z,9.99
2019-05-15T22:58:00.774Z,9.90
2019-05-15T23:00:31.753Z,9.93
2019-05-15T23:03:02.667Z,9.91
2019-05-15T23:05:33.445Z,9.96
2019-05-15T23:08:05.287Z,9.93
2019-05-15T23:10:37.945Z,9.89
2019-05-15T23:13:08.868Z,9.91
2019-05-15T23:15:39.804Z,9.79
2019-05-15T23:18:10.476Z,9.80
2019-05-15T23:20:41.343Z,9.81
2019-05-15T23:23:12.153Z,9.79
2019-05-15T23:25:42.891Z,9.70
2019-05-15T23:28:13.725Z,9.67
2019-05-15T23:30:44.555Z,9.70
2019-05-15T23:33:15.490Z,9.71
2019-05-15T23:35:48.595Z,9.46
2019-05-15T23:38:19.179Z,9.42
2019-05-15T23:40:49.877Z,9.49
2019-05-15T23:43:20.865Z,9.55
2019-05-15T23:45:51.979Z,9.57
2019-05-15T23:48:22.920Z,9.50
2019-05-15T23:50:53.800Z,9.53
2019-05-15T23:53:24.367Z,9.40
2019-05-15T23:55:55.077Z,9.42
2019-05-15T23:58:25.841Z,9.45
